Time;durP1;ratioP1;P1;durP2;ratioP2;P2;SDS_P1;SDS_P2;PMS_P1;PMS_P2;Temp;Humidity;BMP_temperature;BMP_pressure;BME280_temperature;BME280_humidity;BME280_pressure;Samples;Min_cycle;Max_cycle;Signal;HPM_P1;HPM_P2
2024/02/21 00:00:07;;;;;;;20.40;9.67;;;2.50;99.90;;;;;;2045995;28;20266;-74
2024/02/21 00:01:08;;;;;;;13.73;7.32;;;2.50;99.90;;;;;;2060956;28;20609;-75
2024/02/21 00:02:09;;;;;;;9.87;6.00;;;2.40;99.90;;;;;;2063183;28;20222;-74
2024/02/21 00:03:10;;;;;;;10.13;5.47;;;2.40;99.90;;;;;;2055051;28;20206;-75
2024/02/21 00:04:10;;;;;;;7.87;4.10;;;2.40;99.90;;;;;;2046688;28;20241;-74
2024/02/21 00:05:11;;;;;;;8.07;4.00;;;2.40;99.90;;;;;;2039368;29;20869;-75
2024/02/21 00:06:12;;;;;;;10.33;4.30;;;2.40;99.90;;;;;;2039071;28;20215;-75
2024/02/21 00:07:12;;;;;;;9.70;4.57;;;2.50;99.90;;;;;;2046933;28;20300;-75
2024/02/21 00:08:13;;;;;;;9.70;5.00;;;2.50;99.90;;;;;;2046975;28;20188;-75
2024/02/21 00:09:14;;;;;;;9.37;3.97;;;2.50;99.90;;;;;;2054615;28;20194;-75
2024/02/21 00:10:14;;;;;;;6.47;4.60;;;2.50;99.90;;;;;;2044523;28;20199;-74
2024/02/21 00:11:15;;;;;;;10.93;5.00;;;2.50;99.90;;;;;;2039067;28;21717;-75
2024/02/21 00:12:16;;;;;;;7.53;5.43;;;2.50;99.90;;;;;;2045540;28;20321;-75
2024/02/21 00:13:16;;;;;;;9.37;5.03;;;2.50;99.90;;;;;;2061862;28;20237;-75
2024/02/21 00:14:17;;;;;;;13.37;5.73;;;2.50;99.90;;;;;;2051690;28;20230;-75
2024/02/21 00:15:18;;;;;;;6.10;3.70;;;2.60;99.90;;;;;;2038658;29;20251;-76
2024/02/21 00:16:19;;;;;;;8.23;4.00;;;2.50;99.90;;;;;;2046278;28;20644;-76
2024/02/21 00:17:19;;;;;;;9.50;4.13;;;2.50;99.90;;;;;;2054871;28;20256;-75
2024/02/21 00:18:20;;;;;;;6.20;4.10;;;2.50;99.90;;;;;;2038509;28;20235;-75
2024/02/21 00:19:21;;;;;;;9.03;4.90;;;2.50;99.90;;;;;;2042522;28;20326;-75
2024/02/21 00:20:21;;;;;;;9.77;5.77;;;2.60;99.90;;;;;;2059832;28;20272;-76
2024/02/21 00:21:22;;;;;;;10.17;5.17;;;2.50;99.90;;;;;;2060525;28;20243;-75
2024/02/21 00:22:23;;;;;;;8.53;4.77;;;2.50;99.90;;;;;;2047055;28;20249;-75
2024/02/21 00:23:23;;;;;;;10.53;5.20;;;2.50;99.90;;;;;;2055136;28;20295;-75
2024/02/21 00:24:24;;;;;;;10.10;5.53;;;2.40;99.90;;;;;;2059546;28;20241;-75
2024/02/21 00:25:25;;;;;;;7.20;4.70;;;2.50;99.90;;;;;;2054497;28;20320;-75
2024/02/21 00:26:25;;;;;;;6.23;3.43;;;2.40;99.90;;;;;;2049996;28;20285;-75
2024/02/21 00:27:26;;;;;;;6.83;3.73;;;2.40;99.90;;;;;;2054834;28;20743;-75
2024/02/21 00:28:27;;;;;;;8.13;3.23;;;2.40;99.90;;;;;;2055094;28;20269;-75
2024/02/21 00:29:27;;;;;;;6.80;3.73;;;2.50;99.90;;;;;;2054108;28;20276;-75
2024/02/21 00:30:28;;;;;;;9.57;4.17;;;2.50;99.90;;;;;;2050505;28;20334;-75
2024/02/21 00:31:29;;;;;;;6.27;3.90;;;2.50;99.90;;;;;;2039342;29;20632;-76
2024/02/21 00:32:30;;;;;;;6.20;4.23;;;2.60;99.90;;;;;;2054792;28;20241;-75
2024/02/21 00:33:30;;;;;;;6.50;4.30;;;2.60;99.90;;;;;;2058262;28;20711;-75
2024/02/21 00:34:31;;;;;;;6.67;3.93;;;2.60;99.90;;;;;;2042474;28;20326;-75
2024/02/21 00:35:32;;;;;;;9.70;4.73;;;2.70;99.90;;;;;;2048270;28;20312;-75
2024/02/21 00:36:32;;;;;;;10.00;5.13;;;2.70;99.90;;;;;;2054739;28;20233;-74
2024/02/21 00:37:33;;;;;;;11.27;5.17;;;2.70;99.90;;;;;;2055406;28;20246;-75
2024/02/21 00:38:34;;;;;;;10.33;4.77;;;2.70;99.90;;;;;;2054617;28;20234;-75
2024/02/21 00:39:34;;;;;;;10.77;4.20;;;2.70;99.90;;;;;;2049343;28;20790;-75
2024/02/21 00:40:35;;;;;;;8.17;4.60;;;2.60;99.90;;;;;;2052306;28;20252;-75
2024/02/21 00:41:36;;;;;;;8.30;4.00;;;2.60;99.90;;;;;;2060953;28;20244;-75
2024/02/21 00:42:37;;;;;;;8.13;4.40;;;2.70;99.90;;;;;;2057057;28;20234;-75
2024/02/21 00:43:38;;;;;;;8.67;4.30;;;2.60;99.90;;;;;;2047020;28;20238;-76
2024/02/21 00:44:39;;;;;;;9.93;4.27;;;2.90;99.90;;;;;;2051735;28;20234;-75
2024/02/21 00:45:39;;;;;;;5.20;3.37;;;2.60;99.90;;;;;;2063471;28;20237;-76
2024/02/21 00:46:40;;;;;;;9.93;4.33;;;2.60;99.90;;;;;;2062596;28;20233;-75
2024/02/21 00:47:41;;;;;;;18.20;4.43;;;2.70;99.90;;;;;;2040884;28;20656;-75
2024/02/21 00:48:41;;;;;;;11.30;4.57;;;2.70;99.90;;;;;;2030943;29;20236;-75
2024/02/21 00:49:42;;;;;;;7.03;3.73;;;2.70;99.90;;;;;;2052557;28;20234;-75
2024/02/21 00:50:43;;;;;;;7.60;3.57;;;2.70;99.90;;;;;;2056240;28;20712;-74
2024/02/21 00:51:43;;;;;;;4.20;3.03;;;2.60;99.90;;;;;;2049356;28;20354;-76
2024/02/21 00:52:44;;;;;;;5.50;3.50;;;2.70;99.90;;;;;;2046799;28;20750;-75
2024/02/21 00:53:45;;;;;;;8.80;4.43;;;2.80;99.90;;;;;;2051785;28;20321;-75
2024/02/21 00:54:46;;;;;;;5.97;3.50;;;2.70;99.90;;;;;;2051827;28;20286;-76
2024/02/21 00:55:46;;;;;;;7.40;4.23;;;2.70;99.90;;;;;;2047481;28;20719;-76
2024/02/21 00:56:47;;;;;;;7.93;3.40;;;2.70;99.90;;;;;;2053421;28;20227;-76
2024/02/21 00:57:48;;;;;;;8.27;3.60;;;2.60;99.90;;;;;;2062760;28;20695;-76
2024/02/21 00:58:48;;;;;;;5.83;3.20;;;2.60;99.90;;;;;;2062688;28;20245;-76
2024/02/21 00:59:49;;;;;;;6.80;3.50;;;2.70;99.90;;;;;;2047919;28;20230;-76
2024/02/21 01:00:49;;;;;;;5.60;3.07;;;2.80;99.90;;;;;;2045637;29;20218;-75
2024/02/21 01:01:50;;;;;;;5.47;3.03;;;2.80;99.90;;;;;;2050980;28;20233;-76
2024/02/21 01:02:51;;;;;;;9.03;3.70;;;2.90;99.90;;;;;;2052049;28;20221;-75
2024/02/21 01:03:54;;;;;;;5.37;3.10;;;2.90;99.90;;;;;;2046470;28;20227;-75
2024/02/21 01:04:55;;;;;;;3.47;2.83;;;2.90;99.90;;;;;;2046724;28;20223;-76
2024/02/21 01:05:56;;;;;;;5.33;3.37;;;2.80;99.90;;;;;;2061003;28;20309;-75
2024/02/21 01:06:56;;;;;;;4.50;2.87;;;2.70;99.90;;;;;;2046679;28;20278;-75
2024/02/21 01:07:57;;;;;;;6.37;3.27;;;2.70;99.90;;;;;;2030850;29;20638;-75
2024/02/21 01:08:57;;;;;;;7.43;3.63;;;2.80;99.90;;;;;;2038815;28;20210;-76
2024/02/21 01:09:58;;;;;;;6.23;3.17;;;2.80;99.90;;;;;;2046879;28;20191;-76
2024/02/21 01:10:59;;;;;;;5.93;3.17;;;2.80;99.90;;;;;;2046203;28;20207;-76
2024/02/21 01:11:59;;;;;;;7.60;3.40;;;2.80;99.90;;;;;;2046404;28;20291;-75
2024/02/21 01:13:00;;;;;;;6.17;3.50;;;2.90;99.90;;;;;;2059084;28;20170;-76
2024/02/21 01:14:01;;;;;;;8.70;3.70;;;2.90;99.90;;;;;;2059586;28;20189;-75
2024/02/21 01:15:02;;;;;;;6.50;3.17;;;2.90;99.90;;;;;;2053465;28;20174;-75
2024/02/21 01:16:02;;;;;;;7.60;2.77;;;2.80;99.90;;;;;;2038995;29;20204;-76
2024/02/21 01:17:06;;;;;;;6.53;3.77;;;2.90;99.90;;;;;;2032481;29;20577;-76
2024/02/21 01:18:06;;;;;;;6.20;3.35;;;2.90;99.90;;;;;;2045037;28;20188;-75
2024/02/21 01:19:07;;;;;;;6.73;3.20;;;2.90;99.90;;;;;;2046889;28;20646;-76
2024/02/21 01:20:08;;;;;;;7.43;2.80;;;2.90;99.90;;;;;;2055267;28;20257;-75
2024/02/21 01:21:09;;;;;;;7.47;3.58;;;2.90;99.90;;;;;;2038511;28;20195;-76
2024/02/21 01:22:10;;;;;;;7.63;3.30;;;2.80;99.90;;;;;;2030558;29;20195;-76
2024/02/21 01:23:11;;;;;;;6.27;3.30;;;2.90;99.90;;;;;;2049565;28;20183;-76
2024/02/21 01:24:12;;;;;;;9.20;3.27;;;2.80;99.90;;;;;;2046384;28;20191;-76
2024/02/21 01:25:12;;;;;;;6.83;4.10;;;2.80;99.90;;;;;;2046336;28;20187;-76
2024/02/21 01:26:15;;;;;;;5.77;3.20;;;2.70;99.90;;;;;;2049616;28;20593;-76
2024/02/21 01:27:16;;;;;;;3.78;2.55;;;2.80;99.90;;;;;;2046194;28;20231;-76
2024/02/21 01:28:18;;;;;;;5.75;2.85;;;2.80;99.90;;;;;;2041935;28;20293;-76
2024/02/21 01:29:19;;;;;;;7.40;3.60;;;2.80;99.90;;;;;;2041135;28;21104;-76
2024/02/21 01:30:19;;;;;;;4.53;2.80;;;2.80;99.90;;;;;;2042372;28;20268;-76
2024/02/21 01:31:20;;;;;;;8.17;3.43;;;2.80;99.90;;;;;;2046265;28;20815;-76
2024/02/21 01:32:24;;;;;;;7.87;3.40;;;2.80;99.90;;;;;;2046261;28;20230;-75
2024/02/21 01:33:24;;;;;;;6.63;3.47;;;2.80;99.90;;;;;;2045993;28;20242;-75
2024/02/21 01:34:25;;;;;;;4.77;3.00;;;2.80;99.90;;;;;;2050081;28;20322;-75
2024/02/21 01:35:26;;;;;;;7.63;3.17;;;2.70;99.90;;;;;;2054346;28;20240;-75
2024/02/21 01:36:26;;;;;;;9.30;3.43;;;2.70;99.90;;;;;;2053952;28;20240;-75
2024/02/21 01:37:27;;;;;;;7.13;3.13;;;2.70;99.90;;;;;;2053775;28;20336;-75
2024/02/21 01:38:28;;;;;;;7.70;3.30;;;2.70;99.90;;;;;;2053801;28;21309;-75
2024/02/21 01:39:29;;;;;;;9.02;3.17;;;2.70;99.90;;;;;;2054126;28;20321;-75
2024/02/21 01:40:30;;;;;;;5.63;3.30;;;2.70;99.90;;;;;;2048975;28;20230;-75
2024/02/21 01:41:31;;;;;;;7.37;2.97;;;2.80;99.90;;;;;;2047542;28;20531;-75
2024/02/21 01:42:32;;;;;;;5.55;3.17;;;2.80;99.90;;;;;;2049083;28;20231;-75
2024/02/21 01:43:32;;;;;;;7.90;3.33;;;2.80;99.90;;;;;;2037881;29;20295;-75
2024/02/21 01:44:33;;;;;;;7.90;2.83;;;2.80;99.90;;;;;;2034967;29;20237;-75
2024/02/21 01:45:34;;;;;;;6.83;3.13;;;2.90;99.90;;;;;;2041645;28;20266;-75
2024/02/21 01:46:35;;;;;;;8.90;3.07;;;2.80;99.90;;;;;;2043133;28;20231;-76
2024/02/21 01:47:37;;;;;;;6.73;3.60;;;2.90;99.90;;;;;;2046003;28;20250;-75
2024/02/21 01:48:38;;;;;;;7.20;2.42;;;2.90;99.90;;;;;;2053867;28;20237;-76
2024/02/21 01:49:42;;;;;;;6.43;3.38;;;2.90;99.90;;;;;;2053808;28;20806;-75
2024/02/21 01:50:47;;;;;;;7.03;2.80;;;2.90;99.90;;;;;;2047511;28;20329;-75
2024/02/21 01:51:48;;;;;;;7.03;3.40;;;3.00;99.90;;;;;;2046172;28;20215;-75
2024/02/21 01:52:50;;;;;;;5.10;3.23;;;3.00;99.90;;;;;;2046265;28;20696;-76
2024/02/21 01:53:52;;;;;;;5.22;3.10;;;3.00;99.90;;;;;;2052024;28;20217;-76
2024/02/21 01:54:52;;;;;;;6.57;3.40;;;3.10;99.90;;;;;;2051802;28;20222;-75
2024/02/21 01:55:53;;;;;;;7.77;3.27;;;3.10;99.90;;;;;;2046143;28;20258;-76
2024/02/21 01:56:54;;;;;;;5.00;2.80;;;3.10;99.90;;;;;;2039145;29;20342;-76
2024/02/21 01:57:55;;;;;;;4.93;2.43;;;3.20;99.90;;;;;;2054085;28;20700;-76
2024/02/21 01:58:56;;;;;;;9.03;3.43;;;3.10;99.90;;;;;;2052136;28;20668;-75
2024/02/21 01:59:57;;;;;;;4.20;2.50;;;3.10;99.90;;;;;;2061181;28;20299;-75
2024/02/21 02:00:57;;;;;;;5.17;2.90;;;3.20;99.90;;;;;;2049893;28;21178;-75
2024/02/21 02:02:00;;;;;;;4.07;2.70;;;3.20;99.90;;;;;;2058384;28;20648;-75
2024/02/21 02:03:00;;;;;;;7.00;3.20;;;3.20;99.90;;;;;;2051693;28;20687;-75
2024/02/21 02:04:01;;;;;;;6.13;2.70;;;3.20;99.90;;;;;;2050973;28;20194;-75
2024/02/21 02:05:02;;;;;;;4.95;2.80;;;3.20;99.90;;;;;;2044694;28;20213;-75
2024/02/21 02:06:06;;;;;;;4.00;2.78;;;3.20;99.90;;;;;;2044424;28;20199;-76
2024/02/21 02:07:07;;;;;;;6.30;3.17;;;3.30;99.90;;;;;;2052775;28;20185;-76
2024/02/21 02:08:08;;;;;;;6.53;2.80;;;3.10;99.90;;;;;;2059881;28;20178;-76
2024/02/21 02:09:09;;;;;;;7.93;2.70;;;3.10;99.90;;;;;;2052026;28;20233;-78
2024/02/21 02:10:10;;;;;;;8.80;3.20;;;3.10;99.90;;;;;;2043713;28;20280;-76
2024/02/21 02:11:13;;;;;;;5.55;2.95;;;3.10;99.90;;;;;;2037344;29;20219;-76
2024/02/21 02:12:14;;;;;;;4.68;2.90;;;3.10;99.90;;;;;;2045740;28;20190;-76
2024/02/21 02:13:15;;;;;;;8.23;3.30;;;3.20;99.90;;;;;;2054333;28;20273;-76
2024/02/21 02:14:16;;;;;;;6.60;3.30;;;3.20;99.90;;;;;;2053295;28;20242;-76
2024/02/21 02:15:17;;;;;;;3.97;2.80;;;3.20;99.90;;;;;;2044972;28;20261;-76
2024/02/21 02:16:17;;;;;;;6.60;3.47;;;3.20;99.90;;;;;;2046901;28;20263;-76
2024/02/21 02:17:19;;;;;;;6.13;2.90;;;3.10;99.90;;;;;;2050695;28;20234;-76
2024/02/21 02:18:20;;;;;;;6.15;3.05;;;3.00;99.90;;;;;;2049828;28;20333;-76
2024/02/21 02:19:21;;;;;;;4.70;2.80;;;3.00;99.90;;;;;;2049236;28;20266;-76
2024/02/21 02:20:21;;;;;;;6.93;3.07;;;3.00;99.90;;;;;;2044854;28;20607;-76
2024/02/21 02:21:39;;;;;;;4.10;2.93;;;3.00;99.90;;;;;;2045244;28;20317;-76
2024/02/21 02:22:43;;;;;;;6.18;2.90;;;2.90;99.90;;;;;;2058960;28;20236;-76
2024/02/21 02:23:44;;;;;;;5.45;2.60;;;2.90;99.90;;;;;;2045014;28;20241;-76
2024/02/21 02:24:45;;;;;;;5.83;3.33;;;3.00;99.90;;;;;;2033876;29;20247;-77
2024/02/21 02:25:49;;;;;;;9.53;3.30;;;2.90;99.90;;;;;;2043897;28;20235;-76
2024/02/21 02:26:49;;;;;;;5.57;3.10;;;2.90;99.90;;;;;;2052788;28;20532;-75
2024/02/21 02:27:50;;;;;;;9.73;3.20;;;2.90;99.90;;;;;;2045973;28;20223;-75
2024/02/21 02:28:51;;;;;;;9.30;3.43;;;2.90;99.90;;;;;;2044258;28;20218;-77
2024/02/21 02:29:52;;;;;;;6.30;3.00;;;2.90;99.90;;;;;;2053438;28;20684;-75
2024/02/21 02:30:53;;;;;;;6.18;2.60;;;2.80;99.90;;;;;;2061500;28;20229;-75
2024/02/21 02:31:53;;;;;;;3.57;2.47;;;2.90;99.90;;;;;;2045338;28;20226;-75
2024/02/21 02:32:54;;;;;;;4.37;2.53;;;2.80;99.90;;;;;;2044679;29;20232;-75
2024/02/21 02:33:55;;;;;;;7.50;2.80;;;2.80;99.90;;;;;;2062596;28;20226;-75
2024/02/21 02:34:56;;;;;;;6.57;2.80;;;2.80;99.90;;;;;;2061182;28;20213;-75
2024/02/21 02:35:58;;;;;;;5.90;2.90;;;2.90;99.90;;;;;;2046436;28;20191;-75
2024/02/21 02:36:59;;;;;;;5.28;2.58;;;2.90;99.90;;;;;;2045496;28;20186;-75
2024/02/21 02:38:00;;;;;;;8.97;3.10;;;2.80;99.90;;;;;;2049589;28;20568;-75
2024/02/21 02:39:00;;;;;;;5.20;3.20;;;2.80;99.90;;;;;;2063790;28;20189;-75
2024/02/21 02:40:01;;;;;;;6.50;2.90;;;2.90;99.90;;;;;;2042980;28;20192;-75
2024/02/21 02:41:02;;;;;;;5.83;3.20;;;2.90;99.90;;;;;;2037647;28;20183;-75
2024/02/21 02:42:02;;;;;;;5.47;2.73;;;2.90;99.90;;;;;;2045034;28;20198;-76
2024/02/21 02:43:03;;;;;;;5.63;3.13;;;2.90;99.90;;;;;;2045373;28;20587;-78
2024/02/21 02:44:04;;;;;;;5.13;2.90;;;3.00;99.90;;;;;;2044321;28;20800;-76
2024/02/21 02:45:06;;;;;;;5.70;3.10;;;2.90;99.90;;;;;;2036752;29;20537;-75
2024/02/21 02:46:06;;;;;;;5.82;2.78;;;2.90;99.90;;;;;;2038172;28;20620;-76
2024/02/21 02:47:08;;;;;;;4.63;2.27;;;2.90;99.90;;;;;;2052832;28;20198;-77
2024/02/21 02:48:09;;;;;;;4.78;2.45;;;3.00;99.90;;;;;;2052662;28;20641;-76
2024/02/21 02:49:10;;;;;;;4.27;2.73;;;3.00;99.90;;;;;;2045135;28;20242;-76
2024/02/21 02:50:11;;;;;;;4.10;2.70;;;3.00;99.90;;;;;;2046104;28;20190;-77
2024/02/21 02:51:11;;;;;;;4.27;2.70;;;2.90;99.90;;;;;;2048313;28;20206;-76
2024/02/21 02:52:12;;;;;;;6.60;2.93;;;2.90;99.90;;;;;;2055334;28;20428;-76
2024/02/21 02:53:13;;;;;;;6.23;2.40;;;2.80;99.90;;;;;;2052411;28;20190;-75
2024/02/21 02:54:13;;;;;;;6.67;2.77;;;2.90;99.90;;;;;;2057449;28;20653;-75
2024/02/21 02:55:14;;;;;;;4.03;2.50;;;2.90;99.90;;;;;;2059367;28;20204;-75
2024/02/21 02:56:15;;;;;;;4.83;2.50;;;2.90;99.90;;;;;;2039665;29;21978;-75
2024/02/21 02:57:17;;;;;;;6.93;3.00;;;2.90;99.90;;;;;;2036553;28;20274;-74
2024/02/21 02:58:17;;;;;;;6.65;2.80;;;3.00;99.90;;;;;;2062333;28;20456;-75
2024/02/21 02:59:18;;;;;;;7.00;3.37;;;3.00;99.90;;;;;;2062152;28;20616;-75
2024/02/21 03:00:19;;;;;;;7.00;2.77;;;2.90;99.90;;;;;;2050293;28;20323;-74
2024/02/21 03:01:20;;;;;;;3.25;2.08;;;2.90;99.90;;;;;;2055962;28;20712;-75
2024/02/21 03:02:20;;;;;;;5.50;2.57;;;2.80;99.90;;;;;;2055675;28;20226;-75
2024/02/21 03:03:21;;;;;;;5.43;2.57;;;2.80;99.90;;;;;;2046629;28;20231;-75
2024/02/21 03:04:22;;;;;;;4.97;2.27;;;2.90;99.90;;;;;;2040239;29;20235;-75
2024/02/21 03:05:22;;;;;;;4.63;2.50;;;2.80;99.90;;;;;;2052833;28;20257;-75
2024/02/21 03:06:23;;;;;;;5.87;2.80;;;2.90;99.90;;;;;;2046681;28;20235;-76
2024/02/21 03:07:25;;;;;;;4.93;2.80;;;2.90;99.90;;;;;;2055362;28;20222;-75
2024/02/21 03:08:26;;;;;;;5.07;2.83;;;3.00;99.90;;;;;;2060393;28;20230;-76
2024/02/21 03:09:28;;;;;;;4.67;2.87;;;3.00;99.90;;;;;;2047447;28;20705;-75
2024/02/21 03:10:28;;;;;;;6.55;2.92;;;2.90;99.90;;;;;;2048698;28;20716;-75
2024/02/21 03:11:29;;;;;;;5.50;2.20;;;3.00;99.90;;;;;;2051980;28;20277;-75
2024/02/21 03:12:30;;;;;;;5.00;2.50;;;3.00;99.90;;;;;;2064338;28;20617;-76
2024/02/21 03:13:31;;;;;;;5.33;2.60;;;3.10;99.90;;;;;;2055510;28;20629;-76
2024/02/21 03:14:32;;;;;;;8.10;2.30;;;3.10;99.90;;;;;;2058192;28;20237;-76
2024/02/21 03:15:33;;;;;;;4.43;2.50;;;3.20;99.90;;;;;;2055600;28;20241;-76
2024/02/21 03:16:34;;;;;;;4.33;2.10;;;3.10;99.90;;;;;;2039003;29;20264;-75
2024/02/21 03:17:35;;;;;;;6.30;2.10;;;3.20;99.90;;;;;;2047049;28;20255;-76
2024/02/21 03:18:35;;;;;;;4.22;2.63;;;3.20;99.90;;;;;;2053080;28;20324;-76
2024/02/21 03:19:36;;;;;;;8.47;2.60;;;3.20;99.90;;;;;;2044423;28;20235;-76
2024/02/21 03:20:37;;;;;;;3.00;2.33;;;3.20;99.90;;;;;;2030580;29;20254;-76
2024/02/21 03:21:37;;;;;;;9.33;2.43;;;3.10;99.90;;;;;;2034075;29;20231;-76
2024/02/21 03:22:38;;;;;;;5.73;3.50;;;3.10;99.90;;;;;;2042113;28;20232;-75
2024/02/21 03:23:39;;;;;;;6.00;2.53;;;3.10;99.90;;;;;;2041170;29;20286;-75
2024/02/21 03:24:39;;;;;;;5.70;3.07;;;3.00;99.90;;;;;;2047079;28;20670;-76
2024/02/21 03:25:40;;;;;;;6.50;3.10;;;3.00;99.90;;;;;;2047445;28;20231;-76
2024/02/21 03:26:40;;;;;;;8.30;3.13;;;2.90;99.90;;;;;;2048646;28;20369;-75
2024/02/21 03:27:41;;;;;;;6.63;2.87;;;3.00;99.90;;;;;;2047351;28;20289;-76
2024/02/21 03:28:44;;;;;;;8.10;3.50;;;3.00;99.90;;;;;;2055889;28;20277;-76
2024/02/21 03:29:44;;;;;;;5.78;2.90;;;2.90;99.90;;;;;;2047264;28;20673;-76
2024/02/21 03:30:45;;;;;;;5.37;2.63;;;2.80;99.90;;;;;;2047056;28;20241;-76
2024/02/21 03:31:46;;;;;;;10.90;3.07;;;2.90;99.90;;;;;;2055558;28;20622;-76
2024/02/21 03:32:46;;;;;;;7.90;3.00;;;2.90;99.90;;;;;;2055740;28;20277;-76
2024/02/21 03:33:47;;;;;;;7.83;3.80;;;2.90;99.90;;;;;;2047185;28;20837;-77
2024/02/21 03:34:48;;;;;;;12.77;3.07;;;2.80;99.90;;;;;;2040109;28;20349;-75
2024/02/21 03:35:48;;;;;;;5.43;2.70;;;2.80;99.90;;;;;;2044856;28;20238;-75
2024/02/21 03:36:49;;;;;;;3.93;2.63;;;2.70;99.90;;;;;;2053957;28;20264;-76
2024/02/21 03:37:50;;;;;;;6.00;3.03;;;2.70;99.90;;;;;;2063147;28;20223;-76
2024/02/21 03:38:50;;;;;;;5.27;3.00;;;2.70;99.90;;;;;;2062760;28;20233;-76
2024/02/21 03:39:51;;;;;;;6.97;2.87;;;2.70;99.90;;;;;;2044422;28;20593;-75
2024/02/21 03:40:52;;;;;;;5.50;2.87;;;2.70;99.90;;;;;;2049659;28;20226;-75
2024/02/21 03:41:52;;;;;;;7.97;3.13;;;2.70;99.90;;;;;;2060486;28;20308;-76
2024/02/21 03:42:53;;;;;;;6.57;3.00;;;2.70;99.90;;;;;;2051022;28;20305;-78
2024/02/21 03:43:54;;;;;;;6.93;2.90;;;2.70;99.90;;;;;;2058890;28;20247;-75
2024/02/21 03:44:54;;;;;;;6.33;2.90;;;2.70;99.90;;;;;;2046458;28;20227;-75
2024/02/21 03:45:55;;;;;;;4.10;2.40;;;2.70;99.90;;;;;;2049814;28;20234;-75
2024/02/21 03:46:55;;;;;;;5.63;2.77;;;2.60;99.90;;;;;;2053817;28;20222;-75
2024/02/21 03:47:56;;;;;;;5.50;2.70;;;2.60;99.90;;;;;;2053734;28;20676;-75
2024/02/21 03:48:57;;;;;;;4.93;2.93;;;2.50;99.90;;;;;;2054838;28;20182;-76
2024/02/21 03:49:59;;;;;;;8.03;2.87;;;2.40;99.90;;;;;;2054414;28;20274;-75
2024/02/21 03:51:00;;;;;;;4.95;2.40;;;2.40;99.90;;;;;;2053207;28;20190;-75
2024/02/21 03:52:00;;;;;;;6.43;2.57;;;2.40;99.90;;;;;;2044106;28;20225;-75
2024/02/21 03:53:01;;;;;;;5.67;2.70;;;2.30;99.90;;;;;;2051999;28;20184;-75
2024/02/21 03:54:02;;;;;;;4.40;2.57;;;2.40;99.90;;;;;;2047662;28;20188;-76
2024/02/21 03:55:02;;;;;;;6.33;2.40;;;2.50;99.90;;;;;;2044603;28;20297;-75
2024/02/21 03:56:04;;;;;;;6.57;2.97;;;2.30;99.90;;;;;;2039562;28;20288;-75
2024/02/21 03:57:06;;;;;;;5.18;2.70;;;2.40;99.90;;;;;;2038207;28;20179;-75
2024/02/21 03:58:06;;;;;;;9.35;3.08;;;2.50;99.90;;;;;;2048691;28;20210;-75
2024/02/21 03:59:08;;;;;;;7.43;2.50;;;2.40;99.90;;;;;;2055277;28;20189;-75
2024/02/21 04:00:10;;;;;;;6.97;2.22;;;2.50;99.90;;;;;;2054316;28;20253;-75
2024/02/21 04:01:12;;;;;;;3.28;2.17;;;2.40;99.90;;;;;;2047395;28;20188;-75
2024/02/21 04:02:12;;;;;;;5.10;2.55;;;2.40;99.90;;;;;;2051609;28;20707;-75
2024/02/21 04:03:13;;;;;;;7.00;2.90;;;2.40;99.90;;;;;;2062160;28;20194;-76
2024/02/21 04:04:14;;;;;;;4.77;2.67;;;2.40;99.90;;;;;;2050860;28;20190;-75
2024/02/21 04:05:16;;;;;;;3.67;2.33;;;2.30;99.90;;;;;;2052085;28;20233;-76
2024/02/21 04:06:17;;;;;;;4.35;2.33;;;2.30;99.90;;;;;;2059175;28;20287;-76
2024/02/21 04:07:19;;;;;;;5.03;2.28;;;2.30;99.90;;;;;;2049100;28;20317;-76
2024/02/21 04:08:20;;;;;;;3.47;2.30;;;2.40;99.90;;;;;;2042259;28;20582;-76
2024/02/21 04:09:20;;;;;;;5.30;2.30;;;2.40;99.90;;;;;;2045747;28;20245;-76
2024/02/21 04:10:21;;;;;;;7.27;2.53;;;2.40;99.90;;;;;;2045131;28;20242;-76
2024/02/21 04:11:22;;;;;;;5.13;2.50;;;2.40;99.90;;;;;;2046027;28;20261;-76
2024/02/21 04:12:22;;;;;;;6.47;2.50;;;2.30;99.90;;;;;;2052742;28;20604;-75
2024/02/21 04:13:23;;;;;;;7.87;3.23;;;2.40;99.90;;;;;;2056884;28;20277;-76
2024/02/21 04:14:24;;;;;;;7.23;2.43;;;2.50;99.90;;;;;;2045455;28;20237;-75
2024/02/21 04:15:24;;;;;;;5.67;2.80;;;2.50;99.90;;;;;;2041014;29;20282;-75
2024/02/21 04:16:25;;;;;;;6.43;2.97;;;2.50;99.90;;;;;;2049669;28;20248;-76
2024/02/21 04:17:26;;;;;;;5.03;2.83;;;2.50;99.90;;;;;;2046030;28;20238;-76
2024/02/21 04:18:26;;;;;;;6.37;2.70;;;2.50;99.90;;;;;;2046708;28;20237;-75
2024/02/21 04:19:27;;;;;;;6.13;2.50;;;2.60;99.90;;;;;;2045948;28;20723;-75
2024/02/21 04:20:28;;;;;;;3.90;2.17;;;2.60;99.90;;;;;;2045971;28;20257;-74
2024/02/21 04:21:29;;;;;;;7.68;2.25;;;2.50;99.90;;;;;;2050491;28;20233;-74
2024/02/21 04:22:29;;;;;;;6.70;2.23;;;2.50;99.90;;;;;;2054006;28;20313;-75
2024/02/21 04:23:30;;;;;;;4.60;2.13;;;2.50;99.90;;;;;;2049668;28;20377;-74
2024/02/21 04:24:31;;;;;;;3.70;2.00;;;2.50;99.90;;;;;;2037934;28;20270;-75
2024/02/21 04:25:31;;;;;;;4.47;2.07;;;2.50;99.90;;;;;;2042522;28;20721;-75
2024/02/21 04:26:33;;;;;;;6.07;2.23;;;2.60;99.90;;;;;;2045818;28;20287;-76
2024/02/21 04:27:34;;;;;;;6.20;2.35;;;2.60;99.90;;;;;;2042850;28;20266;-76
2024/02/21 04:28:34;;;;;;;5.28;2.65;;;2.60;99.90;;;;;;2042511;28;20660;-76
2024/02/21 04:29:35;;;;;;;4.07;2.50;;;2.60;99.90;;;;;;2048599;28;20262;-75
2024/02/21 04:30:36;;;;;;;5.45;1.98;;;2.60;99.90;;;;;;2059453;28;20244;-75
2024/02/21 04:31:37;;;;;;;6.53;2.70;;;2.50;99.90;;;;;;2056080;28;20241;-74
2024/02/21 04:32:38;;;;;;;8.27;2.37;;;2.50;99.90;;;;;;2046756;28;20237;-74
2024/02/21 04:33:39;;;;;;;4.75;2.58;;;2.50;99.90;;;;;;2054776;28;20230;-74
2024/02/21 04:34:41;;;;;;;6.10;2.80;;;2.40;99.90;;;;;;2049702;28;20264;-75
2024/02/21 04:35:42;;;;;;;4.63;2.50;;;2.40;99.90;;;;;;2037696;28;20238;-75
2024/02/21 04:36:43;;;;;;;6.10;2.87;;;2.40;99.90;;;;;;2055164;28;20241;-75
2024/02/21 04:37:44;;;;;;;4.28;2.75;;;2.40;99.90;;;;;;2061767;28;20236;-75
2024/02/21 04:38:45;;;;;;;3.95;2.15;;;2.40;99.90;;;;;;2053801;28;20626;-75
2024/02/21 04:39:46;;;;;;;3.85;2.10;;;2.40;99.90;;;;;;2047863;28;20239;-75
2024/02/21 04:40:47;;;;;;;6.97;2.53;;;2.30;99.90;;;;;;2053022;28;20237;-76
2024/02/21 04:41:47;;;;;;;6.63;2.73;;;2.40;99.90;;;;;;2049689;28;20264;-76
2024/02/21 04:42:48;;;;;;;3.77;2.37;;;2.40;99.90;;;;;;2045745;28;20230;-76
2024/02/21 04:43:49;;;;;;;4.97;2.90;;;2.40;99.90;;;;;;2045845;28;20227;-77
2024/02/21 04:44:49;;;;;;;4.60;2.60;;;2.40;99.90;;;;;;2045809;28;20238;-76
2024/02/21 04:45:50;;;;;;;4.50;2.53;;;2.30;99.90;;;;;;2037202;29;20235;-76
2024/02/21 04:46:51;;;;;;;3.07;2.40;;;2.20;99.90;;;;;;2062708;28;20222;-76
2024/02/21 04:47:52;;;;;;;5.47;2.03;;;2.20;99.90;;;;;;2053236;28;20233;-76
2024/02/21 04:48:52;;;;;;;5.13;2.70;;;2.20;99.90;;;;;;2045160;29;20726;-76
2024/02/21 04:49:53;;;;;;;4.20;2.50;;;2.30;99.90;;;;;;2062353;28;20233;-76
2024/02/21 04:50:54;;;;;;;5.40;2.63;;;2.20;99.90;;;;;;2052399;28;20285;-76
2024/02/21 04:51:55;;;;;;;5.07;2.43;;;2.30;99.90;;;;;;2059545;28;20272;-76
2024/02/21 04:52:55;;;;;;;7.63;3.30;;;2.30;99.90;;;;;;2045380;28;20214;-76
2024/02/21 04:53:56;;;;;;;5.57;3.27;;;2.20;99.90;;;;;;2038781;29;20860;-76
2024/02/21 04:54:57;;;;;;;6.07;2.53;;;2.20;99.90;;;;;;2038374;28;20187;-76
2024/02/21 04:55:58;;;;;;;9.20;3.37;;;2.10;99.90;;;;;;2058177;28;20662;-76
2024/02/21 04:56:58;;;;;;;6.70;3.15;;;2.10;99.90;;;;;;2058171;28;20177;-76
2024/02/21 04:58:02;;;;;;;4.63;2.90;;;2.10;99.90;;;;;;2050470;28;20186;-76
2024/02/21 04:59:02;;;;;;;5.22;2.83;;;2.00;99.90;;;;;;2046002;28;20280;-76
2024/02/21 05:00:04;;;;;;;3.50;2.50;;;2.00;99.90;;;;;;2044229;28;20567;-76
2024/02/21 05:01:05;;;;;;;6.57;2.78;;;2.00;99.90;;;;;;2041490;28;20195;-75
2024/02/21 05:02:05;;;;;;;7.43;3.27;;;2.10;99.90;;;;;;2042076;28;20253;-74
2024/02/21 05:03:06;;;;;;;7.33;4.80;;;2.00;99.90;;;;;;2037905;29;20182;-76
2024/02/21 05:04:07;;;;;;;6.07;4.00;;;2.00;99.90;;;;;;2052662;28;20183;-75
2024/02/21 05:05:08;;;;;;;5.93;3.63;;;2.10;99.90;;;;;;2048449;28;20215;-75
2024/02/21 05:06:08;;;;;;;6.07;3.30;;;2.10;99.90;;;;;;2043813;28;20206;-75
2024/02/21 05:07:10;;;;;;;7.57;3.80;;;2.00;99.90;;;;;;2050370;28;20186;-75
2024/02/21 05:08:11;;;;;;;7.63;4.28;;;2.00;99.90;;;;;;2049783;28;20237;-76
2024/02/21 05:09:12;;;;;;;7.40;3.80;;;1.90;99.90;;;;;;2049937;28;20195;-75
2024/02/21 05:10:13;;;;;;;5.77;3.20;;;2.00;99.90;;;;;;2050750;28;20190;-75
2024/02/21 05:11:14;;;;;;;9.40;3.70;;;2.00;99.90;;;;;;2050780;28;20518;-75
2024/02/21 05:12:14;;;;;;;6.70;3.83;;;2.20;99.90;;;;;;2036207;29;20182;-75
2024/02/21 05:13:15;;;;;;;8.00;4.37;;;2.10;99.90;;;;;;2040076;29;20235;-75
2024/02/21 05:14:16;;;;;;;7.47;4.93;;;2.10;99.90;;;;;;2045551;28;20237;-76
2024/02/21 05:15:16;;;;;;;9.33;5.47;;;2.00;99.90;;;;;;2051953;28;20245;-76
2024/02/21 05:16:19;;;;;;;9.87;5.40;;;2.00;99.90;;;;;;2045271;28;20686;-75
2024/02/21 05:17:19;;;;;;;8.13;5.00;;;2.00;99.90;;;;;;2050071;28;20232;-76
2024/02/21 05:18:20;;;;;;;9.33;5.13;;;2.00;99.90;;;;;;2045594;28;20251;-75
2024/02/21 05:19:21;;;;;;;8.90;6.20;;;2.00;99.90;;;;;;2058662;28;20289;-75
2024/02/21 05:20:21;;;;;;;9.33;5.47;;;2.00;99.90;;;;;;2053090;28;20318;-76